Time;durP1;ratioP1;P1;durP2;ratioP2;P2;SDS_P1;SDS_P2;PMS_P1;PMS_P2;Temp;Humidity;BMP_temperature;BMP_pressure;BME280_temperature;BME280_humidity;BME280_pressure;Samples;Min_cycle;Max_cycle;Signal;HPM_P1;HPM_P2
2022/07/25 00:00:35;;;;;;;2.70;2.17;;;22.70;72.00;;;;;;5002594;28;20461;-51
2022/07/25 00:03:01;;;;;;;2.30;2.10;;;22.70;71.80;;;;;;5007144;28;20878;-50
2022/07/25 00:05:28;;;;;;;3.70;2.50;;;22.60;72.30;;;;;;5002608;28;20486;-52
2022/07/25 00:07:57;;;;;;;3.47;2.37;;;22.60;73.40;;;;;;5001684;28;20426;-50
2022/07/25 00:10:24;;;;;;;3.33;2.60;;;22.60;72.20;;;;;;4996382;28;20454;-49
2022/07/25 00:12:51;;;;;;;3.20;2.47;;;22.60;73.60;;;;;;4996320;28;20803;-51
2022/07/25 00:15:18;;;;;;;3.13;2.27;;;22.50;74.50;;;;;;4996913;28;20458;-51
2022/07/25 00:17:45;;;;;;;3.33;2.50;;;22.50;74.30;;;;;;4998313;28;20525;-52
2022/07/25 00:20:12;;;;;;;4.10;2.60;;;22.50;74.50;;;;;;4997802;28;20868;-48
2022/07/25 00:22:39;;;;;;;2.77;2.37;;;22.50;73.80;;;;;;4998335;28;20490;-50
2022/07/25 00:25:08;;;;;;;3.60;2.43;;;22.50;74.00;;;;;;4998187;28;20460;-49
2022/07/25 00:27:35;;;;;;;3.00;2.10;;;22.50;74.60;;;;;;4996690;28;20442;-55
2022/07/25 00:30:02;;;;;;;3.77;2.87;;;22.50;74.30;;;;;;5003407;28;20463;-44
2022/07/25 00:32:29;;;;;;;3.60;2.87;;;22.40;74.80;;;;;;4998942;28;20461;-54
2022/07/25 00:34:56;;;;;;;3.13;2.53;;;22.40;74.80;;;;;;4997354;28;20495;-49
2022/07/25 00:37:22;;;;;;;2.70;2.50;;;22.40;73.90;;;;;;4998063;28;20517;-53
2022/07/25 00:39:49;;;;;;;2.87;2.57;;;22.40;74.40;;;;;;4998305;28;20466;-44
2022/07/25 00:42:17;;;;;;;3.80;2.37;;;22.40;73.70;;;;;;5000320;28;20485;-55
2022/07/25 00:44:48;;;;;;;2.90;2.10;;;22.30;75.10;;;;;;4997267;28;20450;-52
2022/07/25 00:47:14;;;;;;;2.60;2.40;;;22.30;75.10;;;;;;4999455;28;21104;-51
2022/07/25 00:49:41;;;;;;;3.00;2.50;;;22.30;75.30;;;;;;4998761;28;20454;-48
2022/07/25 00:52:09;;;;;;;2.90;2.50;;;22.20;75.40;;;;;;4998997;28;20485;-55
2022/07/25 00:54:36;;;;;;;2.80;2.50;;;22.20;75.50;;;;;;5001955;28;20481;-51
2022/07/25 00:57:03;;;;;;;2.50;2.30;;;22.20;74.90;;;;;;4999871;28;20534;-49
2022/07/25 00:59:31;;;;;;;2.43;2.23;;;22.10;75.00;;;;;;4996009;28;20481;-50
2022/07/25 01:01:58;;;;;;;3.27;2.30;;;22.10;76.40;;;;;;4997348;28;20466;-49
2022/07/25 01:04:25;;;;;;;2.77;2.17;;;22.00;75.90;;;;;;4997060;28;20518;-53
2022/07/25 01:06:52;;;;;;;2.80;2.60;;;22.00;76.80;;;;;;4996954;28;20573;-45
2022/07/25 01:09:20;;;;;;;1.73;1.63;;;22.00;75.70;;;;;;5000696;28;20460;-55
2022/07/25 01:11:47;;;;;;;2.10;1.90;;;22.00;76.20;;;;;;5001511;28;20430;-50
2022/07/25 01:14:14;;;;;;;5.33;2.60;;;21.90;75.80;;;;;;4996534;28;20466;-50
2022/07/25 01:16:42;;;;;;;3.97;2.03;;;21.90;76.30;;;;;;5001061;28;20541;-47
2022/07/25 01:19:09;;;;;;;4.03;2.37;;;21.80;78.10;;;;;;4995204;28;20749;-52
2022/07/25 01:21:39;;;;;;;2.70;1.97;;;21.80;77.50;;;;;;4993366;28;20469;-48
2022/07/25 01:24:07;;;;;;;3.30;2.57;;;21.80;77.20;;;;;;4999738;28;20484;-49
2022/07/25 01:26:34;;;;;;;2.97;2.67;;;21.80;78.10;;;;;;5000080;28;20546;-49
2022/07/25 01:29:01;;;;;;;3.10;2.60;;;21.80;77.80;;;;;;4994645;28;20461;-49
2022/07/25 01:31:28;;;;;;;2.83;2.60;;;21.80;78.50;;;;;;5000416;28;20558;-50
2022/07/25 01:33:54;;;;;;;3.10;2.33;;;21.80;78.20;;;;;;4998827;28;20470;-50
2022/07/25 01:36:22;;;;;;;2.80;2.50;;;21.70;78.40;;;;;;5001926;28;20510;-50
2022/07/25 01:38:53;;;;;;;2.63;2.20;;;21.60;79.50;;;;;;5005300;28;20442;-53
2022/07/25 01:41:19;;;;;;;2.50;2.27;;;21.60;79.30;;;;;;4997847;28;20434;-49
2022/07/25 01:43:46;;;;;;;2.70;2.20;;;21.60;79.80;;;;;;4998288;28;20504;-45
2022/07/25 01:46:15;;;;;;;3.00;2.20;;;21.60;79.40;;;;;;5000223;28;20453;-51
2022/07/25 01:48:42;;;;;;;2.53;2.33;;;21.60;80.40;;;;;;5002039;28;20552;-47
2022/07/25 01:51:10;;;;;;;4.20;2.70;;;21.60;80.50;;;;;;5003145;28;20522;-51
2022/07/25 01:53:37;;;;;;;2.63;2.43;;;21.50;80.50;;;;;;4999512;28;20482;-46
2022/07/25 01:56:06;;;;;;;3.37;2.60;;;21.50;80.10;;;;;;5002413;28;21069;-51
2022/07/25 01:58:32;;;;;;;2.33;2.00;;;21.50;80.80;;;;;;5001604;28;20454;-52
2022/07/25 02:00:59;;;;;;;2.57;1.87;;;21.50;80.60;;;;;;5004329;28;20587;-45
2022/07/25 02:03:32;;;;;;;2.97;2.60;;;21.50;80.70;;;;;;5003912;28;20482;-52
2022/07/25 02:06:01;;;;;;;2.27;1.90;;;21.60;80.90;;;;;;4998483;28;20474;-53
2022/07/25 02:08:28;;;;;;;3.43;2.57;;;21.50;80.70;;;;;;4999043;28;20952;-50
2022/07/25 02:10:55;;;;;;;4.20;2.20;;;21.50;82.00;;;;;;5004201;28;20518;-50
2022/07/25 02:13:24;;;;;;;2.70;2.50;;;21.50;81.40;;;;;;5004968;28;20466;-47
2022/07/25 02:15:51;;;;;;;2.60;2.23;;;21.50;81.60;;;;;;5004704;28;20453;-51
2022/07/25 02:18:18;;;;;;;2.53;2.17;;;21.50;81.80;;;;;;5007958;28;20474;-45
2022/07/25 02:20:45;;;;;;;3.30;2.20;;;21.50;81.70;;;;;;4998684;28;20473;-52
2022/07/25 02:23:12;;;;;;;2.43;2.07;;;21.50;82.10;;;;;;4997109;28;20486;-49
2022/07/25 02:25:39;;;;;;;2.63;1.87;;;21.50;83.50;;;;;;5001705;28;20755;-52
2022/07/25 02:28:08;;;;;;;2.63;2.43;;;21.50;82.20;;;;;;4998530;28;20595;-54
2022/07/25 02:30:36;;;;;;;3.37;2.40;;;21.50;83.10;;;;;;4998660;28;20462;-54
2022/07/25 02:33:03;;;;;;;9.70;2.70;;;21.40;82.80;;;;;;4997911;28;20447;-48
2022/07/25 02:35:36;;;;;;;2.80;1.97;;;21.40;82.80;;;;;;4998744;28;20441;-50
2022/07/25 02:38:05;;;;;;;4.07;2.40;;;21.40;83.00;;;;;;4999810;28;20443;-52
2022/07/25 02:40:32;;;;;;;3.07;2.47;;;21.40;83.20;;;;;;4999720;28;20533;-52
2022/07/25 02:42:59;;;;;;;2.53;2.10;;;21.40;83.40;;;;;;5000672;28;20485;-50
2022/07/25 02:45:26;;;;;;;3.27;1.70;;;21.40;83.00;;;;;;4999092;28;20461;-52
2022/07/25 02:47:54;;;;;;;4.87;2.30;;;21.40;82.80;;;;;;5000411;28;20493;-49
2022/07/25 02:50:24;;;;;;;3.17;2.97;;;21.30;83.10;;;;;;5004028;28;20454;-51
2022/07/25 02:52:54;;;;;;;3.23;2.37;;;21.30;83.90;;;;;;5007348;28;20466;-50
2022/07/25 02:55:23;;;;;;;2.20;1.97;;;21.30;84.10;;;;;;5000440;28;20488;-52
2022/07/25 02:57:50;;;;;;;3.10;2.00;;;21.20;84.50;;;;;;5002892;28;20529;-55
2022/07/25 03:00:18;;;;;;;2.20;2.00;;;21.20;84.10;;;;;;5004264;28;20446;-54
2022/07/25 03:02:45;;;;;;;3.20;2.00;;;21.20;83.90;;;;;;5004993;28;20824;-46
2022/07/25 03:05:15;;;;;;;4.17;3.77;;;21.20;84.30;;;;;;4999867;28;20476;-52
2022/07/25 03:07:43;;;;;;;2.70;2.50;;;21.20;84.00;;;;;;5005006;28;20484;-54
2022/07/25 03:10:12;;;;;;;4.23;2.40;;;21.20;85.00;;;;;;5005662;28;20460;-47
2022/07/25 03:12:40;;;;;;;2.47;2.27;;;21.10;85.80;;;;;;5002533;28;20468;-48
2022/07/25 03:15:07;;;;;;;6.20;2.63;;;21.10;84.70;;;;;;4999015;28;20545;-48
2022/07/25 03:17:34;;;;;;;2.50;2.23;;;21.10;86.40;;;;;;5006588;28;20443;-48
2022/07/25 03:20:01;;;;;;;2.30;2.00;;;21.10;86.00;;;;;;5002389;28;20456;-48
2022/07/25 03:22:29;;;;;;;3.10;2.23;;;21.00;85.70;;;;;;5004567;28;20427;-41
2022/07/25 03:24:57;;;;;;;2.67;2.47;;;21.00;85.80;;;;;;4998779;28;20485;-48
2022/07/25 03:27:26;;;;;;;3.40;2.40;;;21.00;86.80;;;;;;4995195;28;20478;-54
2022/07/25 03:29:54;;;;;;;2.57;2.37;;;20.90;86.80;;;;;;5000851;28;20468;-48
2022/07/25 03:32:22;;;;;;;2.70;2.07;;;20.90;88.00;;;;;;5001976;28;20503;-54
2022/07/25 03:34:48;;;;;;;2.70;2.43;;;20.90;85.40;;;;;;4997923;28;20470;-49
2022/07/25 03:37:15;;;;;;;2.80;2.37;;;20.90;86.10;;;;;;4998164;28;20526;-53
2022/07/25 03:39:43;;;;;;;3.13;2.40;;;20.90;86.60;;;;;;5000421;28;20452;-54
2022/07/25 03:42:10;;;;;;;2.37;2.17;;;20.90;87.10;;;;;;4999687;28;20533;-51
2022/07/25 03:44:40;;;;;;;2.20;2.00;;;20.90;87.80;;;;;;4995411;28;20485;-55
2022/07/25 03:47:07;;;;;;;5.53;2.20;;;20.90;87.80;;;;;;4997941;28;20542;-54
2022/07/25 03:49:34;;;;;;;2.60;2.23;;;20.90;88.60;;;;;;4999281;28;20454;-48
2022/07/25 03:52:01;;;;;;;3.53;2.13;;;20.90;87.40;;;;;;4997348;28;20458;-46
2022/07/25 03:54:28;;;;;;;2.70;2.40;;;20.90;88.00;;;;;;5003411;28;20577;-49
2022/07/25 03:56:56;;;;;;;3.93;2.67;;;20.80;87.90;;;;;;4998027;28;20446;-52
2022/07/25 03:59:23;;;;;;;2.30;2.10;;;20.90;88.40;;;;;;4995288;28;20453;-49
2022/07/25 04:01:51;;;;;;;3.13;2.30;;;20.90;88.40;;;;;;5001498;28;20466;-52
2022/07/25 04:04:18;;;;;;;2.60;2.30;;;20.80;87.40;;;;;;4998435;28;20578;-51
2022/07/25 04:06:45;;;;;;;3.43;3.13;;;20.90;87.40;;;;;;4995502;28;20454;-52
2022/07/25 04:09:14;;;;;;;2.30;2.10;;;20.90;87.90;;;;;;5001327;28;20541;-47
2022/07/25 04:11:41;;;;;;;5.60;3.00;;;20.90;87.80;;;;;;5001407;28;20473;-54
2022/07/25 04:14:09;;;;;;;3.27;2.97;;;20.80;87.50;;;;;;4996971;28;20549;-50
2022/07/25 04:16:36;;;;;;;5.00;2.90;;;20.90;88.40;;;;;;5004789;28;20517;-48
2022/07/25 04:19:03;;;;;;;3.00;2.70;;;20.90;89.40;;;;;;5000999;28;20466;-45
2022/07/25 04:21:30;;;;;;;3.40;2.43;;;20.80;89.10;;;;;;5002651;28;20545;-54
2022/07/25 04:24:00;;;;;;;2.87;2.40;;;20.90;88.50;;;;;;4998335;28;20514;-51
2022/07/25 04:26:27;;;;;;;3.90;2.67;;;20.90;88.50;;;;;;5001037;28;20450;-47
2022/07/25 04:28:55;;;;;;;3.50;3.00;;;20.90;89.30;;;;;;4998785;28;20453;-45
2022/07/25 04:31:24;;;;;;;3.00;2.23;;;20.90;90.10;;;;;;4998500;28;20461;-49
2022/07/25 04:33:51;;;;;;;3.27;2.40;;;21.00;91.60;;;;;;4994564;28;20507;-49
2022/07/25 04:36:18;;;;;;;7.13;3.17;;;21.10;90.00;;;;;;5006824;28;20494;-47
2022/07/25 04:38:44;;;;;;;4.73;2.77;;;21.20;88.80;;;;;;5011580;28;20517;-40
2022/07/25 04:41:11;;;;;;;3.90;2.83;;;21.30;90.80;;;;;;5011787;28;20480;-44
2022/07/25 04:43:38;;;;;;;3.50;2.20;;;21.40;89.10;;;;;;5011115;28;20490;-47
2022/07/25 04:46:05;;;;;;;27.83;3.03;;;21.50;88.90;;;;;;5011926;28;20482;-45
2022/07/25 04:48:34;;;;;;;4.30;2.80;;;21.60;88.20;;;;;;5011912;28;20538;-43
2022/07/25 04:51:04;;;;;;;2.50;2.30;;;21.70;88.80;;;;;;5012305;28;20562;-49
2022/07/25 04:53:31;;;;;;;2.53;2.20;;;21.70;87.20;;;;;;5010996;28;20452;-42
2022/07/25 04:55:58;;;;;;;2.47;2.27;;;21.70;87.80;;;;;;5011642;28;20447;-45
2022/07/25 04:58:28;;;;;;;2.90;2.27;;;21.80;88.90;;;;;;5011448;28;20456;-50
2022/07/25 05:01:04;;;;;;;3.57;2.53;;;21.80;88.40;;;;;;5011441;28;20504;-48
2022/07/25 05:03:32;;;;;;;2.83;2.10;;;21.90;88.30;;;;;;5011369;28;20477;-44
2022/07/25 05:05:59;;;;;;;2.73;2.43;;;21.90;87.70;;;;;;4998820;28;20442;-45
2022/07/25 05:08:26;;;;;;;3.83;2.97;;;21.90;88.30;;;;;;5012889;28;20525;-36
2022/07/25 05:10:53;;;;;;;4.10;2.60;;;22.00;88.60;;;;;;5012569;28;20556;-37
2022/07/25 05:13:20;;;;;;;3.37;2.30;;;22.00;88.80;;;;;;5013531;28;20441;-42
2022/07/25 05:15:47;;;;;;;3.87;2.10;;;22.00;88.40;;;;;;5013245;28;20513;-46
2022/07/25 05:18:14;;;;;;;2.80;2.30;;;22.10;88.40;;;;;;5012512;28;20533;-39
2022/07/25 05:20:42;;;;;;;3.93;2.70;;;22.10;88.90;;;;;;5016020;28;20465;-40
2022/07/25 05:23:09;;;;;;;2.90;2.43;;;22.10;88.00;;;;;;5012985;28;20448;-43
2022/07/25 05:25:35;;;;;;;4.63;2.40;;;22.20;88.10;;;;;;5016380;28;20444;-36
2022/07/25 05:28:02;;;;;;;4.20;2.10;;;22.20;87.60;;;;;;5035953;28;20449;-48
2022/07/25 05:30:29;;;;;;;2.10;1.90;;;22.20;88.60;;;;;;5014489;28;20438;-51
2022/07/25 05:32:59;;;;;;;6.93;3.20;;;22.30;87.60;;;;;;5014912;28;20626;-46
2022/07/25 05:35:26;;;;;;;2.90;2.60;;;22.30;88.50;;;;;;5014367;28;20466;-48
2022/07/25 05:37:55;;;;;;;4.20;2.37;;;22.30;87.70;;;;;;5014517;28;20446;-48
2022/07/25 05:40:21;;;;;;;3.60;2.83;;;22.40;88.00;;;;;;5014498;28;20449;-45
2022/07/25 05:42:48;;;;;;;5.13;3.00;;;22.40;87.30;;;;;;5014735;28;20437;-43
2022/07/25 05:45:17;;;;;;;2.57;2.37;;;22.50;87.50;;;;;;5014504;28;20495;-48
2022/07/25 05:47:44;;;;;;;3.47;2.57;;;22.50;87.40;;;;;;5014218;28;20450;-40
2022/07/25 05:50:12;;;;;;;9.13;3.70;;;22.60;87.90;;;;;;5014022;28;20487;-47
2022/07/25 05:52:40;;;;;;;7.23;4.20;;;22.60;90.10;;;;;;5014308;28;20458;-43
2022/07/25 05:55:09;;;;;;;7.00;4.80;;;22.70;89.90;;;;;;5014298;28;20482;-42
2022/07/25 05:57:36;;;;;;;6.97;4.23;;;22.80;89.30;;;;;;5014060;28;20521;-44
2022/07/25 06:00:05;;;;;;;9.03;3.23;;;22.90;88.80;;;;;;5014251;28;20473;-46
2022/07/25 06:02:32;;;;;;;7.13;3.63;;;22.90;88.40;;;;;;5014545;28;20450;-50
2022/07/25 06:04:59;;;;;;;5.83;3.50;;;23.00;88.30;;;;;;5014814;28;20530;-48
2022/07/25 06:07:26;;;;;;;6.90;2.90;;;23.10;87.40;;;;;;5014343;28;20522;-45
2022/07/25 06:09:52;;;;;;;6.70;3.20;;;23.20;87.70;;;;;;5013952;28;20456;-40
2022/07/25 06:12:21;;;;;;;5.60;3.27;;;23.20;86.50;;;;;;5014494;28;20458;-47
2022/07/25 06:14:48;;;;;;;11.60;3.40;;;23.30;86.60;;;;;;5013824;28;20434;-47
2022/07/25 06:17:14;;;;;;;6.10;3.00;;;23.40;86.40;;;;;;5013682;28;20507;-47
2022/07/25 06:19:41;;;;;;;8.70;3.50;;;23.40;86.50;;;;;;5013857;28;20477;-46
2022/07/25 06:22:10;;;;;;;6.53;3.43;;;23.50;85.30;;;;;;5014320;28;20528;-44
2022/07/25 06:24:36;;;;;;;3.83;3.37;;;23.60;85.50;;;;;;5013101;28;20523;-47
2022/07/25 06:27:04;;;;;;;8.07;3.50;;;23.60;85.50;;;;;;5012498;28;20492;-52
2022/07/25 06:29:33;;;;;;;4.87;3.03;;;23.70;84.50;;;;;;5012369;28;20454;-53
2022/07/25 06:32:00;;;;;;;4.17;3.37;;;23.80;84.30;;;;;;5012453;28;20470;-53
2022/07/25 06:34:27;;;;;;;4.03;3.63;;;23.90;84.10;;;;;;5013166;28;20442;-57
2022/07/25 06:36:56;;;;;;;3.90;3.60;;;24.00;84.00;;;;;;5013107;28;20501;-53
2022/07/25 06:39:23;;;;;;;4.40;4.00;;;24.00;83.80;;;;;;5013287;28;20493;-54
2022/07/25 06:41:50;;;;;;;4.20;3.80;;;24.10;83.80;;;;;;5013829;28;20443;-50
2022/07/25 06:44:17;;;;;;;6.63;4.00;;;24.20;83.40;;;;;;5012475;28;20474;-56
2022/07/25 06:46:47;;;;;;;4.23;3.83;;;24.30;83.10;;;;;;5001338;28;20812;-52
2022/07/25 06:49:13;;;;;;;4.23;3.80;;;24.40;82.70;;;;;;5013537;28;20545;-56
2022/07/25 06:51:40;;;;;;;4.57;3.70;;;24.50;82.60;;;;;;5013081;28;20536;-50
2022/07/25 06:54:07;;;;;;;6.37;4.00;;;24.60;82.40;;;;;;5013447;28;20486;-54
2022/07/25 06:59:05;;;;;;;4.30;3.90;;;24.70;81.90;;;;;;5074945;28;20483;-49
2022/07/25 07:01:31;;;;;;;13.23;3.80;;;24.80;81.90;;;;;;5076746;28;20431;-46
2022/07/25 07:03:59;;;;;;;7.13;3.87;;;24.90;81.70;;;;;;5076601;28;20470;-46
2022/07/25 07:06:26;;;;;;;4.40;4.00;;;25.10;81.90;;;;;;5076481;28;20487;-49
2022/07/25 07:08:53;;;;;;;4.43;4.03;;;25.20;81.50;;;;;;5076713;28;20464;-52
2022/07/25 07:11:20;;;;;;;5.07;4.57;;;25.30;81.10;;;;;;5076657;28;20506;-42
2022/07/25 07:13:49;;;;;;;4.47;4.07;;;25.40;80.50;;;;;;5076742;28;20531;-46
2022/07/25 07:16:15;;;;;;;4.57;3.93;;;25.50;80.50;;;;;;5077158;28;20432;-47
2022/07/25 07:18:42;;;;;;;6.97;4.50;;;25.60;80.20;;;;;;5076062;28;20467;-60
2022/07/25 07:21:10;;;;;;;4.43;4.03;;;25.80;80.30;;;;;;5075889;28;20426;-51
2022/07/25 07:23:37;;;;;;;3.97;3.53;;;26.40;79.90;;;;;;5075897;28;20495;-52
2022/07/25 07:26:04;;;;;;;6.37;4.50;;;27.60;76.10;;;;;;5076557;28;20504;-54
2022/07/25 07:28:31;;;;;;;5.53;4.87;;;29.10;72.00;;;;;;5075743;28;20455;-54
2022/07/25 07:30:58;;;;;;;5.57;4.93;;;30.60;67.00;;;;;;5075320;28;20454;-51
2022/07/25 07:33:24;;;;;;;6.10;5.03;;;31.90;62.10;;;;;;5075095;28;20511;-49
2022/07/25 07:35:51;;;;;;;6.27;4.97;;;32.90;58.70;;;;;;5075612;28;20447;-52
2022/07/25 07:38:20;;;;;;;4.97;4.57;;;33.60;56.50;;;;;;5075147;28;20455;-58
2022/07/25 07:40:47;;;;;;;5.60;5.10;;;34.40;54.80;;;;;;5075787;28;20471;-49
2022/07/25 07:43:14;;;;;;;5.20;4.80;;;35.40;53.10;;;;;;5075031;28;20450;-48
2022/07/25 07:45:42;;;;;;;4.80;4.30;;;36.20;51.00;;;;;;5074819;28;20487;-48
2022/07/25 07:48:08;;;;;;;6.10;4.73;;;36.90;49.70;;;;;;5075097;28;20459;-49
2022/07/25 07:50:39;;;;;;;5.23;4.73;;;37.40;48.20;;;;;;5075876;28;20443;-46
2022/07/25 07:53:08;;;;;;;5.40;4.80;;;37.70;47.40;;;;;;5074874;28;20459;-52
2022/07/25 07:55:43;;;;;;;6.13;5.50;;;37.70;47.10;;;;;;5075421;28;20493;-51
2022/07/25 07:58:10;;;;;;;5.27;4.77;;;37.70;46.50;;;;;;5024057;28;20458;-54
2022/07/25 08:00:38;;;;;;;5.57;5.00;;;38.00;45.90;;;;;;4993099;28;20508;-49
2022/07/25 08:03:06;;;;;;;7.97;5.30;;;38.10;45.60;;;;;;4993298;28;20479;-57
2022/07/25 08:05:36;;;;;;;6.13;5.53;;;38.40;45.30;;;;;;4993152;28;20491;-51
2022/07/25 08:08:03;;;;;;;4.93;4.53;;;38.90;45.10;;;;;;4993546;28;20442;-49
2022/07/25 08:10:33;;;;;;;6.27;5.67;;;39.10;44.20;;;;;;4992989;28;20427;-48
2022/07/25 08:13:03;;;;;;;5.37;4.90;;;39.50;43.70;;;;;;4992879;28;20512;-54
2022/07/25 08:15:30;;;;;;;5.77;5.27;;;40.00;42.80;;;;;;4992890;28;20462;-55
2022/07/25 08:17:57;;;;;;;6.40;5.90;;;40.10;42.60;;;;;;4992753;28;20455;-52
2022/07/25 08:20:24;;;;;;;5.63;5.20;;;40.30;42.30;;;;;;4992062;28;20470;-52
2022/07/25 08:22:51;;;;;;;6.23;5.73;;;40.50;41.80;;;;;;4992703;28;20450;-54
2022/07/25 08:25:20;;;;;;;6.27;5.77;;;40.30;41.70;;;;;;4992703;28;20512;-53
2022/07/25 08:27:47;;;;;;;7.67;5.80;;;40.20;41.70;;;;;;4993251;28;20435;-48
2022/07/25 08:30:17;;;;;;;6.30;5.80;;;40.40;41.40;;;;;;4992691;28;20477;-49
2022/07/25 08:32:48;;;;;;;6.57;6.00;;;40.40;41.50;;;;;;4992420;28;20459;-51
2022/07/25 08:35:15;;;;;;;7.53;6.10;;;40.50;41.30;;;;;;4992792;28;20462;-56
2022/07/25 08:37:42;;;;;;;6.07;5.47;;;40.60;41.30;;;;;;4992751;28;20459;-53
2022/07/25 08:40:11;;;;;;;6.03;5.53;;;40.70;41.60;;;;;;4992385;28;20472;-52
2022/07/25 08:42:38;;;;;;;6.03;5.43;;;41.00;40.80;;;;;;4993185;28;20431;-49
2022/07/25 08:45:12;;;;;;;8.50;7.70;;;40.80;41.00;;;;;;4992240;28;20513;-47
2022/07/25 08:47:44;;;;;;;9.20;6.50;;;41.00;40.80;;;;;;4992825;28;20499;-51
2022/07/25 08:50:13;;;;;;;6.87;6.27;;;41.00;40.60;;;;;;4992817;28;20491;-54
2022/07/25 08:52:40;;;;;;;6.57;6.07;;;40.90;40.80;;;;;;4992838;28;20461;-48
2022/07/25 08:55:08;;;;;;;7.93;6.53;;;41.00;40.50;;;;;;4992199;28;20493;-50
2022/07/25 08:57:37;;;;;;;9.00;8.30;;;41.20;40.60;;;;;;4992357;28;20465;-54
2022/07/25 09:00:06;;;;;;;7.57;6.90;;;41.40;40.20;;;;;;4992321;28;20467;-51
2022/07/25 09:02:33;;;;;;;10.63;6.13;;;41.30;39.90;;;;;;4992766;28;20459;-55
2022/07/25 09:05:01;;;;;;;7.73;7.13;;;41.30;40.10;;;;;;4992152;28;20548;-48
2022/07/25 09:07:33;;;;;;;7.80;7.07;;;41.30;40.00;;;;;;4992759;28;20494;-56
2022/07/25 09:10:11;;;;;;;8.43;7.63;;;41.20;40.00;;;;;;4992615;28;20483;-47
2022/07/25 09:12:39;;;;;;;8.67;7.70;;;41.10;40.20;;;;;;4992938;28;20477;-50
2022/07/25 09:15:08;;;;;;;7.70;7.10;;;41.20;40.30;;;;;;4992759;28;20431;-48
2022/07/25 09:17:35;;;;;;;7.23;6.50;;;41.20;40.20;;;;;;4992695;28;20463;-51
2022/07/25 09:20:05;;;;;;;7.73;7.03;;;41.60;40.10;;;;;;4992981;28;20470;-52
2022/07/25 09:22:42;;;;;;;7.53;6.97;;;41.60;40.00;;;;;;4992230;28;20516;-55
2022/07/25 09:25:20;;;;;;;7.93;7.23;;;41.50;40.00;;;;;;4991988;28;20462;-51
2022/07/25 09:27:47;;;;;;;7.67;7.07;;;41.20;40.30;;;;;;4992357;28;20466;-50
2022/07/25 09:30:15;;;;;;;7.23;6.60;;;41.00;40.60;;;;;;4991646;28;20490;-47
2022/07/25 09:32:42;;;;;;;8.70;8.00;;;40.80;40.90;;;;;;4992098;28;20518;-56
2022/07/25 09:35:11;;;;;;;8.37;6.80;;;40.50;41.40;;;;;;4992040;28;20510;-50
2022/07/25 09:37:39;;;;;;;7.97;7.27;;;40.40;41.30;;;;;;4991966;28;20443;-53
2022/07/25 09:40:14;;;;;;;7.47;6.77;;;40.40;41.60;;;;;;4991823;28;20446;-51
2022/07/25 09:42:44;;;;;;;8.30;7.60;;;40.80;41.30;;;;;;4992140;28;20477;-47
2022/07/25 09:45:13;;;;;;;8.13;7.43;;;41.10;41.00;;;;;;4992545;28;20478;-55
2022/07/25 09:47:52;;;;;;;8.07;7.43;;;41.20;40.80;;;;;;4992530;28;20475;-57
2022/07/25 09:50:22;;;;;;;8.90;8.10;;;41.20;40.90;;;;;;4992913;28;20450;-51
2022/07/25 09:52:52;;;;;;;8.50;7.87;;;41.20;40.80;;;;;;4994411;28;20451;-52
2022/07/25 09:55:21;;;;;;;8.93;8.20;;;41.30;40.80;;;;;;4995594;28;20451;-48
2022/07/25 09:57:51;;;;;;;8.93;8.13;;;41.00;40.70;;;;;;4992310;28;20451;-58
2022/07/25 10:00:23;;;;;;;8.97;7.50;;;41.10;40.70;;;;;;4984276;28;20489;-52
2022/07/25 10:02:58;;;;;;;8.53;7.83;;;40.90;40.80;;;;;;4995625;28;20498;-50
2022/07/25 10:05:43;;;;;;;8.63;7.13;;;40.70;41.00;;;;;;4994770;28;20471;-48
2022/07/25 10:08:11;;;;;;;8.73;8.03;;;40.80;40.90;;;;;;4994901;28;20443;-43
2022/07/25 10:10:40;;;;;;;7.90;7.30;;;41.00;40.70;;;;;;4993502;28;20535;-47
2022/07/25 10:13:09;;;;;;;8.47;7.70;;;40.80;40.80;;;;;;4994403;28;20455;-54
2022/07/25 10:15:45;;;;;;;8.23;7.53;;;41.00;41.00;;;;;;4993725;28;20455;-55
2022/07/25 10:18:13;;;;;;;7.70;7.10;;;40.90;40.70;;;;;;4994987;28;20439;-49
2022/07/25 10:20:42;;;;;;;10.03;9.00;;;40.80;40.90;;;;;;4977896;28;20455;-54
2022/07/25 10:23:20;;;;;;;9.97;8.57;;;40.80;40.80;;;;;;4993193;28;20477;-50
2022/07/25 10:25:47;;;;;;;9.30;8.40;;;40.90;40.70;;;;;;4986921;28;20497;-60
2022/07/25 10:28:18;;;;;;;9.27;8.50;;;40.70;40.60;;;;;;4987277;28;20515;-48
2022/07/25 10:30:46;;;;;;;9.90;9.10;;;40.50;40.70;;;;;;4980591;28;21123;-57
2022/07/25 10:33:14;;;;;;;10.03;9.20;;;40.20;40.90;;;;;;4993016;28;20454;-52
2022/07/25 10:35:43;;;;;;;8.47;7.67;;;40.10;41.00;;;;;;4993824;28;20450;-55
2022/07/25 10:38:11;;;;;;;8.37;7.67;;;39.90;41.30;;;;;;4992723;28;20455;-52
2022/07/25 10:40:42;;;;;;;8.87;8.10;;;39.50;41.40;;;;;;4994811;28;20448;-56
2022/07/25 10:43:11;;;;;;;8.50;7.70;;;39.10;41.90;;;;;;4988683;28;20482;-50
2022/07/25 10:45:40;;;;;;;9.60;8.80;;;38.90;42.30;;;;;;5038589;28;20518;-58
2022/07/25 10:48:09;;;;;;;9.10;8.40;;;38.80;42.70;;;;;;5027332;28;20447;-57
2022/07/25 10:50:47;;;;;;;9.87;8.87;;;38.70;42.60;;;;;;4987706;28;20481;-57
2022/07/25 10:53:14;;;;;;;9.67;8.73;;;38.60;42.60;;;;;;4985053;28;20465;-52
2022/07/25 10:55:41;;;;;;;10.03;9.03;;;38.40;43.10;;;;;;4992911;28;20494;-50
2022/07/25 10:58:08;;;;;;;9.67;8.73;;;38.30;43.20;;;;;;4992961;28;20443;-47
2022/07/25 11:00:42;;;;;;;9.30;8.50;;;38.20;43.20;;;;;;4993497;28;20522;-49
2022/07/25 11:03:10;;;;;;;9.50;8.60;;;38.10;43.10;;;;;;4993184;28;20430;-53
2022/07/25 11:05:44;;;;;;;8.43;7.73;;;38.00;43.30;;;;;;4993878;28;20490;-51
2022/07/25 11:08:12;;;;;;;15.63;14.03;;;38.00;43.60;;;;;;4994219;28;20518;-52
2022/07/25 11:10:39;;;;;;;9.50;8.43;;;37.90;43.50;;;;;;4993562;28;20453;-50
2022/07/25 11:13:11;;;;;;;9.67;8.67;;;37.80;43.60;;;;;;4994521;28;20443;-54
2022/07/25 11:15:38;;;;;;;9.43;8.60;;;37.90;43.70;;;;;;4994257;28;20435;-49
2022/07/25 11:18:05;;;;;;;9.60;8.80;;;38.10;43.10;;;;;;4993657;28;20443;-51
2022/07/25 11:20:33;;;;;;;9.00;8.20;;;38.10;43.10;;;;;;4993406;28;20463;-50
2022/07/25 11:23:00;;;;;;;10.13;8.90;;;38.00;42.90;;;;;;4979889;28;20466;-57
2022/07/25 11:25:28;;;;;;;9.83;9.03;;;37.70;43.10;;;;;;4977547;28;20982;-59
2022/07/25 11:28:00;;;;;;;11.43;8.67;;;37.40;43.00;;;;;;4977023;28;21082;-56
2022/07/25 11:30:28;;;;;;;10.07;9.17;;;37.10;43.40;;;;;;4978074;28;20871;-55
2022/07/25 11:32:57;;;;;;;8.37;7.57;;;37.10;44.00;;;;;;4980746;28;20491;-54
2022/07/25 11:35:26;;;;;;;9.70;8.67;;;37.30;43.60;;;;;;4976154;28;20435;-56
2022/07/25 11:37:54;;;;;;;8.93;8.03;;;36.70;43.80;;;;;;4981281;28;20440;-58
2022/07/25 11:40:22;;;;;;;9.10;8.30;;;36.40;43.90;;;;;;4976482;28;20546;-57
2022/07/25 11:42:52;;;;;;;9.03;8.23;;;36.10;44.50;;;;;;4981516;28;20473;-57
2022/07/25 11:45:20;;;;;;;10.20;7.60;;;36.10;44.70;;;;;;4992570;28;20466;-50
2022/07/25 11:48:06;;;;;;;22.23;8.33;;;36.10;44.70;;;;;;4993377;28;20419;-46
2022/07/25 11:50:35;;;;;;;9.00;8.10;;;35.90;44.70;;;;;;4994221;28;20496;-52
2022/07/25 11:53:04;;;;;;;8.57;7.77;;;35.60;45.10;;;;;;4993685;28;20466;-55
2022/07/25 11:55:32;;;;;;;8.40;7.63;;;35.60;45.50;;;;;;4994685;28;20447;-55
2022/07/25 11:58:03;;;;;;;9.53;8.60;;;35.60;45.30;;;;;;4994234;28;20493;-53
2022/07/25 12:00:33;;;;;;;9.23;8.03;;;35.50;45.10;;;;;;4994080;28;20459;-52
2022/07/25 12:03:07;;;;;;;10.07;8.93;;;35.60;45.40;;;;;;4994537;28;20441;-52
2022/07/25 12:05:37;;;;;;;9.70;8.67;;;35.80;45.50;;;;;;4994448;28;20496;-54
2022/07/25 12:08:09;;;;;;;8.80;8.10;;;35.90;45.10;;;;;;4994779;28;20419;-48
2022/07/25 12:10:37;;;;;;;9.27;8.47;;;35.90;44.90;;;;;;4994365;28;20454;-50
2022/07/25 12:13:09;;;;;;;9.90;7.70;;;35.80;45.00;;;;;;4992299;28;20470;-57
2022/07/25 12:15:38;;;;;;;9.33;8.53;;;35.90;44.40;;;;;;4990014;28;20427;-57
2022/07/25 12:18:08;;;;;;;9.43;8.63;;;35.80;44.50;;;;;;4989816;28;20510;-49
2022/07/25 12:20:38;;;;;;;7.57;6.97;;;35.70;44.70;;;;;;4990555;28;20454;-53
2022/07/25 12:23:08;;;;;;;10.30;7.60;;;35.50;45.00;;;;;;4991333;28;20499;-55
2022/07/25 12:25:37;;;;;;;8.40;7.70;;;35.40;45.30;;;;;;4978971;28;20509;-55
2022/07/25 12:28:06;;;;;;;9.27;8.13;;;35.20;45.50;;;;;;4988649;28;20461;-57
2022/07/25 12:30:33;;;;;;;9.20;8.40;;;35.30;45.60;;;;;;4991344;28;20443;-56
2022/07/25 12:33:01;;;;;;;8.20;7.50;;;35.40;45.30;;;;;;4991693;28;20503;-57
2022/07/25 12:35:29;;;;;;;8.90;8.00;;;35.40;45.20;;;;;;4990345;28;20465;-54
2022/07/25 12:37:56;;;;;;;11.90;8.30;;;35.40;45.00;;;;;;4990784;28;20481;-48
2022/07/25 12:40:23;;;;;;;9.17;8.37;;;35.30;45.90;;;;;;4993666;28;20443;-48
2022/07/25 12:42:51;;;;;;;8.27;7.57;;;35.30;45.30;;;;;;4993087;28;20451;-52
2022/07/25 12:45:19;;;;;;;9.23;8.40;;;35.40;45.00;;;;;;4993071;28;20450;-51
2022/07/25 12:47:47;;;;;;;7.70;7.10;;;35.40;45.00;;;;;;4993445;28;20427;-43
2022/07/25 12:50:16;;;;;;;8.30;7.43;;;35.40;45.10;;;;;;4993419;28;20455;-51
2022/07/25 12:52:44;;;;;;;10.20;8.77;;;35.60;45.10;;;;;;4992995;28;20525;-52